sensor_id;sensor_type;location;lat;lon;timestamp;P1;durP1;ratioP1;P2;durP2;ratioP2
49123;SDS011;48506;48.202;16.274;2023-03-01T00:01:32;31.27;;;16.95;;
49123;SDS011;48506;48.202;16.274;2023-03-01T00:03:58;33.03;;;16.70;;
49123;SDS011;48506;48.202;16.274;2023-03-01T00:06:26;26.25;;;14.60;;
49123;SDS011;48506;48.202;16.274;2023-03-01T00:08:52;29.80;;;15.82;;
49123;SDS011;48506;48.202;16.274;2023-03-01T00:11:20;27.65;;;15.52;;
49123;SDS011;48506;48.202;16.274;2023-03-01T00:13:50;32.28;;;16.30;;
49123;SDS011;48506;48.202;16.274;2023-03-01T00:16:18;30.10;;;15.48;;
49123;SDS011;48506;48.202;16.274;2023-03-01T00:18:46;22.77;;;12.15;;
49123;SDS011;48506;48.202;16.274;2023-03-01T00:21:13;33.47;;;16.48;;
49123;SDS011;48506;48.202;16.274;2023-03-01T00:23:39;32.17;;;16.80;;
49123;SDS011;48506;48.202;16.274;2023-03-01T00:26:06;33.15;;;16.25;;
49123;SDS011;48506;48.202;16.274;2023-03-01T00:28:34;32.28;;;16.15;;
49123;SDS011;48506;48.202;16.274;2023-03-01T00:31:04;28.85;;;15.88;;
49123;SDS011;48506;48.202;16.274;2023-03-01T00:33:32;30.10;;;15.93;;
49123;SDS011;48506;48.202;16.274;2023-03-01T00:35:58;34.03;;;16.20;;
49123;SDS011;48506;48.202;16.274;2023-03-01T00:38:26;32.15;;;17.00;;
49123;SDS011;48506;48.202;16.274;2023-03-01T00:40:52;30.52;;;16.35;;
49123;SDS011;48506;48.202;16.274;2023-03-01T00:43:18;31.15;;;15.15;;
49123;SDS011;48506;48.202;16.274;2023-03-01T00:45:44;32.65;;;17.80;;
49123;SDS011;48506;48.202;16.274;2023-03-01T00:48:10;34.05;;;16.42;;
49123;SDS011;48506;48.202;16.274;2023-03-01T00:50:36;32.60;;;16.50;;
49123;SDS011;48506;48.202;16.274;2023-03-01T00:53:02;32.33;;;16.92;;
49123;SDS011;48506;48.202;16.274;2023-03-01T00:55:28;31.38;;;16.52;;
49123;SDS011;48506;48.202;16.274;2023-03-01T00:57:54;34.03;;;17.48;;
49123;SDS011;48506;48.202;16.274;2023-03-01T01:00:20;37.30;;;17.67;;
49123;SDS011;48506;48.202;16.274;2023-03-01T01:02:48;32.92;;;17.40;;
49123;SDS011;48506;48.202;16.274;2023-03-01T01:05:18;32.35;;;17.33;;
49123;SDS011;48506;48.202;16.274;2023-03-01T01:07:46;33.35;;;17.58;;
49123;SDS011;48506;48.202;16.274;2023-03-01T01:10:13;37.28;;;17.63;;
49123;SDS011;48506;48.202;16.274;2023-03-01T01:12:43;30.73;;;16.58;;
49123;SDS011;48506;48.202;16.274;2023-03-01T01:15:12;32.58;;;16.83;;
49123;SDS011;48506;48.202;16.274;2023-03-01T01:17:41;38.47;;;18.65;;
49123;SDS011;48506;48.202;16.274;2023-03-01T01:20:08;38.00;;;19.58;;
49123;SDS011;48506;48.202;16.274;2023-03-01T01:22:34;35.42;;;17.60;;
49123;SDS011;48506;48.202;16.274;2023-03-01T01:25:00;36.13;;;18.73;;
49123;SDS011;48506;48.202;16.274;2023-03-01T01:27:26;38.10;;;18.83;;
49123;SDS011;48506;48.202;16.274;2023-03-01T01:29:52;39.72;;;19.48;;
49123;SDS011;48506;48.202;16.274;2023-03-01T01:32:18;34.10;;;18.25;;
49123;SDS011;48506;48.202;16.274;2023-03-01T01:34:44;39.45;;;19.15;;
49123;SDS011;48506;48.202;16.274;2023-03-01T01:37:11;37.28;;;18.30;;
49123;SDS011;48506;48.202;16.274;2023-03-01T01:39:37;43.63;;;18.50;;
49123;SDS011;48506;48.202;16.274;2023-03-01T01:42:03;39.00;;;18.75;;
49123;SDS011;48506;48.202;16.274;2023-03-01T01:44:29;41.05;;;20.40;;
49123;SDS011;48506;48.202;16.274;2023-03-01T01:49:29;50.00;;;22.77;;
49123;SDS011;48506;48.202;16.274;2023-03-01T01:52:18;40.70;;;21.13;;
49123;SDS011;48506;48.202;16.274;2023-03-01T01:54:57;34.78;;;17.75;;
49123;SDS011;48506;48.202;16.274;2023-03-01T01:57:30;33.28;;;17.08;;
49123;SDS011;48506;48.202;16.274;2023-03-01T02:00:05;36.58;;;16.92;;
49123;SDS011;48506;48.202;16.274;2023-03-01T02:02:36;36.08;;;18.55;;
49123;SDS011;48506;48.202;16.274;2023-03-01T02:05:06;33.97;;;17.00;;
49123;SDS011;48506;48.202;16.274;2023-03-01T02:07:40;33.15;;;17.40;;
49123;SDS011;48506;48.202;16.274;2023-03-01T02:10:07;32.00;;;16.83;;
49123;SDS011;48506;48.202;16.274;2023-03-01T02:12:34;35.28;;;18.75;;
49123;SDS011;48506;48.202;16.274;2023-03-01T02:15:02;34.45;;;18.58;;
49123;SDS011;48506;48.202;16.274;2023-03-01T02:17:28;29.80;;;16.10;;
49123;SDS011;48506;48.202;16.274;2023-03-01T02:22:33;36.03;;;17.42;;
49123;SDS011;48506;48.202;16.274;2023-03-01T02:27:40;30.80;;;15.13;;
49123;SDS011;48506;48.202;16.274;2023-03-01T02:30:14;36.78;;;17.80;;
49123;SDS011;48506;48.202;16.274;2023-03-01T02:32:41;35.35;;;17.02;;
49123;SDS011;48506;48.202;16.274;2023-03-01T02:35:09;30.98;;;15.20;;
49123;SDS011;48506;48.202;16.274;2023-03-01T02:37:39;30.55;;;17.23;;
49123;SDS011;48506;48.202;16.274;2023-03-01T02:40:10;31.98;;;16.48;;
49123;SDS011;48506;48.202;16.274;2023-03-01T02:42:45;29.65;;;16.23;;
49123;SDS011;48506;48.202;16.274;2023-03-01T02:45:16;36.38;;;17.05;;
49123;SDS011;48506;48.202;16.274;2023-03-01T02:47:42;35.05;;;17.63;;
49123;SDS011;48506;48.202;16.274;2023-03-01T02:50:13;36.67;;;16.95;;
49123;SDS011;48506;48.202;16.274;2023-03-01T02:53:19;37.42;;;18.05;;
49123;SDS011;48506;48.202;16.274;2023-03-01T02:55:41;34.35;;;17.30;;
49123;SDS011;48506;48.202;16.274;2023-03-01T02:58:07;32.40;;;16.95;;
49123;SDS011;48506;48.202;16.274;2023-03-01T03:00:35;31.83;;;16.55;;
49123;SDS011;48506;48.202;16.274;2023-03-01T03:03:11;33.75;;;17.48;;
49123;SDS011;48506;48.202;16.274;2023-03-01T03:05:39;39.05;;;18.98;;
49123;SDS011;48506;48.202;16.274;2023-03-01T03:08:05;40.30;;;19.23;;
49123;SDS011;48506;48.202;16.274;2023-03-01T03:10:33;35.10;;;16.67;;
49123;SDS011;48506;48.202;16.274;2023-03-01T03:13:05;35.25;;;17.02;;
49123;SDS011;48506;48.202;16.274;2023-03-01T03:15:33;33.33;;;17.45;;
49123;SDS011;48506;48.202;16.274;2023-03-01T03:18:01;35.72;;;17.60;;
49123;SDS011;48506;48.202;16.274;2023-03-01T03:20:29;31.33;;;17.15;;
49123;SDS011;48506;48.202;16.274;2023-03-01T03:22:57;29.52;;;15.57;;
49123;SDS011;48506;48.202;16.274;2023-03-01T03:25:25;34.67;;;17.10;;
49123;SDS011;48506;48.202;16.274;2023-03-01T03:27:52;31.90;;;17.08;;
49123;SDS011;48506;48.202;16.274;2023-03-01T03:30:23;36.75;;;17.98;;
49123;SDS011;48506;48.202;16.274;2023-03-01T03:32:51;27.08;;;14.48;;
49123;SDS011;48506;48.202;16.274;2023-03-01T03:35:21;35.42;;;17.63;;
49123;SDS011;48506;48.202;16.274;2023-03-01T03:37:59;35.25;;;18.58;;
49123;SDS011;48506;48.202;16.274;2023-03-01T03:40:28;33.85;;;17.27;;
49123;SDS011;48506;48.202;16.274;2023-03-01T03:42:58;33.00;;;18.20;;
49123;SDS011;48506;48.202;16.274;2023-03-01T03:45:24;30.65;;;16.02;;
49123;SDS011;48506;48.202;16.274;2023-03-01T03:47:50;34.10;;;17.23;;
49123;SDS011;48506;48.202;16.274;2023-03-01T03:50:16;36.13;;;16.50;;
49123;SDS011;48506;48.202;16.274;2023-03-01T03:52:43;29.67;;;15.93;;
49123;SDS011;48506;48.202;16.274;2023-03-01T03:55:10;30.73;;;15.85;;
49123;SDS011;48506;48.202;16.274;2023-03-01T03:57:38;31.40;;;15.65;;
49123;SDS011;48506;48.202;16.274;2023-03-01T04:00:05;31.92;;;15.75;;
49123;SDS011;48506;48.202;16.274;2023-03-01T04:02:43;29.90;;;16.00;;
49123;SDS011;48506;48.202;16.274;2023-03-01T04:05:10;31.40;;;15.82;;
49123;SDS011;48506;48.202;16.274;2023-03-01T04:07:39;30.00;;;14.90;;
49123;SDS011;48506;48.202;16.274;2023-03-01T04:10:08;36.75;;;17.30;;
49123;SDS011;48506;48.202;16.274;2023-03-01T04:12:36;39.17;;;19.00;;
49123;SDS011;48506;48.202;16.274;2023-03-01T04:15:02;37.42;;;17.00;;
49123;SDS011;48506;48.202;16.274;2023-03-01T04:17:38;37.00;;;19.30;;
49123;SDS011;48506;48.202;16.274;2023-03-01T04:20:05;28.73;;;16.15;;
49123;SDS011;48506;48.202;16.274;2023-03-01T04:22:33;33.67;;;16.65;;
49123;SDS011;48506;48.202;16.274;2023-03-01T04:24:59;34.50;;;16.88;;
49123;SDS011;48506;48.202;16.274;2023-03-01T04:27:34;30.85;;;16.15;;
49123;SDS011;48506;48.202;16.274;2023-03-01T04:30:01;31.45;;;15.52;;
49123;SDS011;48506;48.202;16.274;2023-03-01T04:32:28;29.48;;;15.68;;
49123;SDS011;48506;48.202;16.274;2023-03-01T04:34:55;35.55;;;17.15;;
49123;SDS011;48506;48.202;16.274;2023-03-01T04:37:21;27.98;;;15.43;;
49123;SDS011;48506;48.202;16.274;2023-03-01T04:39:47;31.60;;;16.92;;
49123;SDS011;48506;48.202;16.274;2023-03-01T04:42:13;33.85;;;17.88;;
49123;SDS011;48506;48.202;16.274;2023-03-01T04:44:40;31.27;;;17.98;;
49123;SDS011;48506;48.202;16.274;2023-03-01T04:47:06;31.90;;;18.00;;
49123;SDS011;48506;48.202;16.274;2023-03-01T04:49:32;32.95;;;16.85;;
49123;SDS011;48506;48.202;16.274;2023-03-01T04:51:57;33.95;;;16.83;;
49123;SDS011;48506;48.202;16.274;2023-03-01T04:54:33;27.83;;;15.55;;
49123;SDS011;48506;48.202;16.274;2023-03-01T04:57:01;35.80;;;18.98;;
49123;SDS011;48506;48.202;16.274;2023-03-01T04:59:28;37.08;;;19.02;;
49123;SDS011;48506;48.202;16.274;2023-03-01T05:01:54;43.05;;;19.88;;
49123;SDS011;48506;48.202;16.274;2023-03-01T05:04:21;37.28;;;18.75;;
49123;SDS011;48506;48.202;16.274;2023-03-01T05:06:50;37.60;;;19.85;;
49123;SDS011;48506;48.202;16.274;2023-03-01T05:09:16;39.72;;;21.98;;
49123;SDS011;48506;48.202;16.274;2023-03-01T05:11:42;40.40;;;20.85;;
49123;SDS011;48506;48.202;16.274;2023-03-01T05:14:09;43.28;;;19.38;;
49123;SDS011;48506;48.202;16.274;2023-03-01T05:16:35;40.25;;;19.75;;
49123;SDS011;48506;48.202;16.274;2023-03-01T05:19:02;38.08;;;19.13;;
49123;SDS011;48506;48.202;16.274;2023-03-01T05:21:41;36.67;;;19.77;;
49123;SDS011;48506;48.202;16.274;2023-03-01T05:24:26;29.52;;;16.33;;
49123;SDS011;48506;48.202;16.274;2023-03-01T05:26:52;27.83;;;15.57;;
49123;SDS011;48506;48.202;16.274;2023-03-01T05:29:19;38.83;;;17.02;;
49123;SDS011;48506;48.202;16.274;2023-03-01T05:31:52;32.22;;;16.75;;
49123;SDS011;48506;48.202;16.274;2023-03-01T05:34:23;32.22;;;17.55;;
49123;SDS011;48506;48.202;16.274;2023-03-01T05:36:52;36.22;;;18.27;;
49123;SDS011;48506;48.202;16.274;2023-03-01T05:39:20;38.67;;;19.00;;
49123;SDS011;48506;48.202;16.274;2023-03-01T05:41:48;32.50;;;17.35;;
49123;SDS011;48506;48.202;16.274;2023-03-01T05:44:17;33.95;;;19.55;;
49123;SDS011;48506;48.202;16.274;2023-03-01T05:46:43;40.35;;;19.92;;
49123;SDS011;48506;48.202;16.274;2023-03-01T05:49:10;40.20;;;18.90;;
49123;SDS011;48506;48.202;16.274;2023-03-01T05:51:38;41.58;;;18.48;;
49123;SDS011;48506;48.202;16.274;2023-03-01T05:54:05;37.22;;;19.55;;
49123;SDS011;48506;48.202;16.274;2023-03-01T05:56:34;39.58;;;19.50;;
49123;SDS011;48506;48.202;16.274;2023-03-01T05:59:03;41.67;;;21.48;;
49123;SDS011;48506;48.202;16.274;2023-03-01T06:01:33;43.85;;;21.13;;
49123;SDS011;48506;48.202;16.274;2023-03-01T06:04:00;40.55;;;20.88;;
49123;SDS011;48506;48.202;16.274;2023-03-01T06:06:26;41.28;;;19.25;;
49123;SDS011;48506;48.202;16.274;2023-03-01T06:08:53;49.00;;;24.63;;
49123;SDS011;48506;48.202;16.274;2023-03-01T06:11:20;53.50;;;26.52;;
49123;SDS011;48506;48.202;16.274;2023-03-01T06:13:47;57.75;;;26.75;;
49123;SDS011;48506;48.202;16.274;2023-03-01T06:16:13;54.60;;;27.48;;
49123;SDS011;48506;48.202;16.274;2023-03-01T06:18:39;50.47;;;23.88;;
49123;SDS011;48506;48.202;16.274;2023-03-01T06:21:07;49.58;;;22.20;;
49123;SDS011;48506;48.202;16.274;2023-03-01T06:23:34;47.42;;;22.75;;
49123;SDS011;48506;48.202;16.274;2023-03-01T06:26:00;62.70;;;30.20;;
49123;SDS011;48506;48.202;16.274;2023-03-01T06:28:31;59.03;;;27.70;;
49123;SDS011;48506;48.202;16.274;2023-03-01T06:30:57;62.10;;;29.63;;
49123;SDS011;48506;48.202;16.274;2023-03-01T06:33:23;57.33;;;27.55;;
49123;SDS011;48506;48.202;16.274;2023-03-01T06:35:49;54.90;;;26.65;;
49123;SDS011;48506;48.202;16.274;2023-03-01T06:38:16;50.28;;;25.70;;
49123;SDS011;48506;48.202;16.274;2023-03-01T06:40:44;50.22;;;23.63;;
49123;SDS011;48506;48.202;16.274;2023-03-01T06:43:11;48.45;;;24.02;;
49123;SDS011;48506;48.202;16.274;2023-03-01T06:45:38;43.88;;;21.98;;
49123;SDS011;48506;48.202;16.274;2023-03-01T06:48:04;50.08;;;25.05;;
49123;SDS011;48506;48.202;16.274;2023-03-01T06:50:32;48.90;;;25.88;;
49123;SDS011;48506;48.202;16.274;2023-03-01T06:52:58;46.03;;;23.63;;
49123;SDS011;48506;48.202;16.274;2023-03-01T06:55:24;47.28;;;24.48;;
49123;SDS011;48506;48.202;16.274;2023-03-01T06:58:09;53.78;;;25.75;;
49123;SDS011;48506;48.202;16.274;2023-03-01T07:00:36;46.17;;;23.58;;
49123;SDS011;48506;48.202;16.274;2023-03-01T07:03:02;51.55;;;25.10;;
49123;SDS011;48506;48.202;16.274;2023-03-01T07:05:28;46.60;;;22.98;;
49123;SDS011;48506;48.202;16.274;2023-03-01T07:07:55;51.28;;;26.20;;
49123;SDS011;48506;48.202;16.274;2023-03-01T07:10:21;51.83;;;25.38;;
49123;SDS011;48506;48.202;16.274;2023-03-01T07:12:48;51.97;;;23.67;;
49123;SDS011;48506;48.202;16.274;2023-03-01T07:15:14;46.15;;;24.90;;
49123;SDS011;48506;48.202;16.274;2023-03-01T07:17:40;50.63;;;24.00;;
49123;SDS011;48506;48.202;16.274;2023-03-01T07:20:06;51.60;;;25.88;;
49123;SDS011;48506;48.202;16.274;2023-03-01T07:22:33;48.35;;;23.95;;
49123;SDS011;48506;48.202;16.274;2023-03-01T07:24:59;53.08;;;26.00;;
49123;SDS011;48506;48.202;16.274;2023-03-01T07:27:25;48.58;;;24.08;;
49123;SDS011;48506;48.202;16.274;2023-03-01T07:29:50;49.50;;;25.38;;
49123;SDS011;48506;48.202;16.274;2023-03-01T07:32:17;46.78;;;24.50;;
49123;SDS011;48506;48.202;16.274;2023-03-01T07:34:43;46.80;;;23.70;;
49123;SDS011;48506;48.202;16.274;2023-03-01T07:37:09;48.65;;;23.48;;
49123;SDS011;48506;48.202;16.274;2023-03-01T07:39:34;44.17;;;23.02;;
49123;SDS011;48506;48.202;16.274;2023-03-01T07:42:00;47.05;;;24.30;;
49123;SDS011;48506;48.202;16.274;2023-03-01T07:44:26;47.60;;;24.77;;
49123;SDS011;48506;48.202;16.274;2023-03-01T07:46:53;50.35;;;23.30;;
49123;SDS011;48506;48.202;16.274;2023-03-01T07:49:21;45.83;;;23.77;;
49123;SDS011;48506;48.202;16.274;2023-03-01T07:51:47;51.40;;;24.48;;
49123;SDS011;48506;48.202;16.274;2023-03-01T07:54:13;45.72;;;23.15;;
49123;SDS011;48506;48.202;16.274;2023-03-01T07:56:39;44.55;;;24.27;;
49123;SDS011;48506;48.202;16.274;2023-03-01T07:59:06;42.13;;;23.17;;
49123;SDS011;48506;48.202;16.274;2023-03-01T08:01:32;49.08;;;23.60;;
49123;SDS011;48506;48.202;16.274;2023-03-01T08:03:58;48.45;;;25.40;;
49123;SDS011;48506;48.202;16.274;2023-03-01T08:06:24;43.90;;;23.85;;
49123;SDS011;48506;48.202;16.274;2023-03-01T08:08:49;48.67;;;25.70;;
49123;SDS011;48506;48.202;16.274;2023-03-01T08:11:15;50.38;;;25.48;;
49123;SDS011;48506;48.202;16.274;2023-03-01T08:13:42;50.58;;;25.83;;
49123;SDS011;48506;48.202;16.274;2023-03-01T08:16:13;46.22;;;23.25;;
49123;SDS011;48506;48.202;16.274;2023-03-01T08:18:40;50.13;;;26.33;;
49123;SDS011;48506;48.202;16.274;2023-03-01T08:21:09;45.47;;;24.55;;
49123;SDS011;48506;48.202;16.274;2023-03-01T08:23:37;40.23;;;19.07;;
49123;SDS011;48506;48.202;16.274;2023-03-01T08:26:21;43.38;;;24.05;;
49123;SDS011;48506;48.202;16.274;2023-03-01T08:28:48;54.08;;;24.40;;
49123;SDS011;48506;48.202;16.274;2023-03-01T08:31:30;46.80;;;24.70;;
49123;SDS011;48506;48.202;16.274;2023-03-01T08:34:01;54.60;;;27.67;;
49123;SDS011;48506;48.202;16.274;2023-03-01T08:36:30;50.13;;;25.15;;
49123;SDS011;48506;48.202;16.274;2023-03-01T08:39:06;52.95;;;26.30;;
49123;SDS011;48506;48.202;16.274;2023-03-01T08:41:34;49.58;;;25.63;;
49123;SDS011;48506;48.202;16.274;2023-03-01T08:44:01;51.42;;;26.45;;
49123;SDS011;48506;48.202;16.274;2023-03-01T08:46:28;45.28;;;23.83;;
49123;SDS011;48506;48.202;16.274;2023-03-01T08:48:56;49.70;;;25.88;;
49123;SDS011;48506;48.202;16.274;2023-03-01T08:51:22;55.92;;;26.70;;
49123;SDS011;48506;48.202;16.274;2023-03-01T08:53:50;44.45;;;23.35;;
49123;SDS011;48506;48.202;16.274;2023-03-01T08:56:16;47.92;;;25.73;;
49123;SDS011;48506;48.202;16.274;2023-03-01T08:58:44;44.70;;;25.77;;
49123;SDS011;48506;48.202;16.274;2023-03-01T09:01:12;47.38;;;23.92;;
49123;SDS011;48506;48.202;16.274;2023-03-01T09:03:40;44.88;;;24.40;;
49123;SDS011;48506;48.202;16.274;2023-03-01T09:06:06;52.45;;;27.30;;
49123;SDS011;48506;48.202;16.274;2023-03-01T09:08:37;44.10;;;25.23;;
49123;SDS011;48506;48.202;16.274;2023-03-01T09:11:05;41.40;;;23.40;;
49123;SDS011;48506;48.202;16.274;2023-03-01T09:13:32;45.08;;;23.98;;
49123;SDS011;48506;48.202;16.274;2023-03-01T09:16:00;48.20;;;25.33;;
49123;SDS011;48506;48.202;16.274;2023-03-01T09:18:28;45.47;;;24.95;;
49123;SDS011;48506;48.202;16.274;2023-03-01T09:21:00;44.50;;;22.88;;
49123;SDS011;48506;48.202;16.274;2023-03-01T09:23:33;41.53;;;23.77;;
49123;SDS011;48506;48.202;16.274;2023-03-01T09:26:05;48.00;;;24.70;;
49123;SDS011;48506;48.202;16.274;2023-03-01T09:28:35;44.92;;;23.77;;
49123;SDS011;48506;48.202;16.274;2023-03-01T09:31:03;46.20;;;25.30;;
49123;SDS011;48506;48.202;16.274;2023-03-01T09:33:30;42.08;;;24.08;;
49123;SDS011;48506;48.202;16.274;2023-03-01T09:38:24;44.47;;;23.83;;
49123;SDS011;48506;48.202;16.274;2023-03-01T09:40:50;38.70;;;21.60;;
49123;SDS011;48506;48.202;16.274;2023-03-01T09:43:38;42.22;;;20.90;;
49123;SDS011;48506;48.202;16.274;2023-03-01T09:46:29;39.40;;;20.13;;
49123;SDS011;48506;48.202;16.274;2023-03-01T09:49:02;43.78;;;22.73;;
49123;SDS011;48506;48.202;16.274;2023-03-01T09:51:35;38.78;;;20.55;;
49123;SDS011;48506;48.202;16.274;2023-03-01T09:54:05;37.13;;;22.52;;
49123;SDS011;48506;48.202;16.274;2023-03-01T09:56:34;37.40;;;21.48;;
49123;SDS011;48506;48.202;16.274;2023-03-01T10:01:43;33.92;;;19.90;;
49123;SDS011;48506;48.202;16.274;2023-03-01T10:09:40;40.53;;;21.20;;
49123;SDS011;48506;48.202;16.274;2023-03-01T10:12:15;35.17;;;19.75;;
49123;SDS011;48506;48.202;16.274;2023-03-01T10:14:48;32.90;;;19.25;;
49123;SDS011;48506;48.202;16.274;2023-03-01T10:18:03;31.63;;;19.77;;
49123;SDS011;48506;48.202;16.274;2023-03-01T10:20:20;34.28;;;20.20;;
49123;SDS011;48506;48.202;16.274;2023-03-01T10:28:16;35.85;;;18.50;;
49123;SDS011;48506;48.202;16.274;2023-03-01T10:30:45;34.83;;;18.98;;
49123;SDS011;48506;48.202;16.274;2023-03-01T10:33:19;34.40;;;18.52;;
49123;SDS011;48506;48.202;16.274;2023-03-01T10:35:48;31.80;;;18.65;;
49123;SDS011;48506;48.202;16.274;2023-03-01T10:38:15;33.65;;;19.23;;
49123;SDS011;48506;48.202;16.274;2023-03-01T10:43:43;33.15;;;18.27;;
49123;SDS011;48506;48.202;16.274;2023-03-01T10:49:37;34.10;;;18.55;;
49123;SDS011;48506;48.202;16.274;2023-03-01T10:51:47;31.23;;;18.17;;
49123;SDS011;48506;48.202;16.274;2023-03-01T10:56:54;27.92;;;16.63;;
49123;SDS011;48506;48.202;16.274;2023-03-01T11:05:27;31.20;;;17.98;;
49123;SDS011;48506;48.202;16.274;2023-03-01T11:07:57;29.63;;;17.15;;
49123;SDS011;48506;48.202;16.274;2023-03-01T11:10:28;33.22;;;17.40;;
49123;SDS011;48506;48.202;16.274;2023-03-01T11:13:15;23.67;;;13.55;;
49123;SDS011;48506;48.202;16.274;2023-03-01T11:15:43;29.65;;;16.38;;
49123;SDS011;48506;48.202;16.274;2023-03-01T11:18:27;24.75;;;14.95;;
49123;SDS011;48506;48.202;16.274;2023-03-01T11:20:56;24.95;;;15.00;;
49123;SDS011;48506;48.202;16.274;2023-03-01T11:23:25;22.05;;;11.57;;
49123;SDS011;48506;48.202;16.274;2023-03-01T11:25:55;32.80;;;15.82;;
49123;SDS011;48506;48.202;16.274;2023-03-01T11:28:23;26.25;;;15.05;;
49123;SDS011;48506;48.202;16.274;2023-03-01T11:30:56;26.20;;;14.77;;
49123;SDS011;48506;48.202;16.274;2023-03-01T11:38:53;29.38;;;15.75;;
49123;SDS011;48506;48.202;16.274;2023-03-01T11:41:21;26.70;;;15.07;;
49123;SDS011;48506;48.202;16.274;2023-03-01T11:43:56;27.65;;;16.48;;
49123;SDS011;48506;48.202;16.274;2023-03-01T11:49:01;25.02;;;15.10;;
49123;SDS011;48506;48.202;16.274;2023-03-01T11:57:10;24.27;;;13.98;;
49123;SDS011;48506;48.202;16.274;2023-03-01T12:00:19;29.08;;;15.57;;
49123;SDS011;48506;48.202;16.274;2023-03-01T12:02:54;22.33;;;14.63;;
49123;SDS011;48506;48.202;16.274;2023-03-01T12:08:43;30.67;;;16.85;;
49123;SDS011;48506;48.202;16.274;2023-03-01T12:11:39;29.85;;;17.17;;
49123;SDS011;48506;48.202;16.274;2023-03-01T12:19:56;28.17;;;16.17;;
49123;SDS011;48506;48.202;16.274;2023-03-01T12:22:32;29.10;;;15.48;;
49123;SDS011;48506;48.202;16.274;2023-03-01T12:36:10;33.60;;;16.02;;
49123;SDS011;48506;48.202;16.274;2023-03-01T12:49:30;25.48;;;15.57;;
49123;SDS011;48506;48.202;16.274;2023-03-01T12:52:02;30.25;;;14.95;;
49123;SDS011;48506;48.202;16.274;2023-03-01T12:54:39;25.90;;;15.32;;
49123;SDS011;48506;48.202;16.274;2023-03-01T12:57:09;26.65;;;16.02;;
49123;SDS011;48506;48.202;16.274;2023-03-01T13:02:23;23.42;;;14.75;;
49123;SDS011;48506;48.202;16.274;2023-03-01T13:05:06;24.63;;;14.80;;
49123;SDS011;48506;48.202;16.274;2023-03-01T13:15:49;24.38;;;15.35;;
49123;SDS011;48506;48.202;16.274;2023-03-01T13:20:45;23.02;;;14.07;;
49123;SDS011;48506;48.202;16.274;2023-03-01T13:26:01;24.95;;;14.05;;
49123;SDS011;48506;48.202;16.274;2023-03-01T13:34:39;19.00;;;12.73;;
49123;SDS011;48506;48.202;16.274;2023-03-01T13:37:09;19.60;;;13.23;;
49123;SDS011;48506;48.202;16.274;2023-03-01T13:39:44;19.55;;;13.57;;
49123;SDS011;48506;48.202;16.274;2023-03-01T13:45:02;26.25;;;16.30;;
49123;SDS011;48506;48.202;16.274;2023-03-01T13:47:29;24.02;;;14.90;;
49123;SDS011;48506;48.202;16.274;2023-03-01T13:49:59;32.63;;;14.85;;
49123;SDS011;48506;48.202;16.274;2023-03-01T13:54:54;21.20;;;13.05;;
49123;SDS011;48506;48.202;16.274;2023-03-01T13:57:23;22.20;;;14.85;;
49123;SDS011;48506;48.202;16.274;2023-03-01T13:59:53;26.92;;;15.77;;
49123;SDS011;48506;48.202;16.274;2023-03-01T14:02:19;26.83;;;15.20;;
49123;SDS011;48506;48.202;16.274;2023-03-01T14:04:55;26.88;;;15.32;;
49123;SDS011;48506;48.202;16.274;2023-03-01T14:07:23;21.83;;;14.90;;
49123;SDS011;48506;48.202;16.274;2023-03-01T14:09:54;22.48;;;14.52;;
49123;SDS011;48506;48.202;16.274;2023-03-01T14:15:16;23.58;;;14.25;;
49123;SDS011;48506;48.202;16.274;2023-03-01T14:20:27;22.52;;;14.95;;
49123;SDS011;48506;48.202;16.274;2023-03-01T14:23:09;24.58;;;14.98;;
49123;SDS011;48506;48.202;16.274;2023-03-01T14:25:37;28.25;;;15.52;;
49123;SDS011;48506;48.202;16.274;2023-03-01T14:30:43;25.05;;;15.15;;
49123;SDS011;48506;48.202;16.274;2023-03-01T14:35:53;20.10;;;13.85;;
49123;SDS011;48506;48.202;16.274;2023-03-01T14:38:20;22.08;;;16.35;;
49123;SDS011;48506;48.202;16.274;2023-03-01T14:40:48;20.98;;;14.35;;
49123;SDS011;48506;48.202;16.274;2023-03-01T14:43:20;25.40;;;17.35;;
49123;SDS011;48506;48.202;16.274;2023-03-01T14:45:50;23.48;;;15.95;;
49123;SDS011;48506;48.202;16.274;2023-03-01T14:48:17;21.25;;;14.85;;
49123;SDS011;48506;48.202;16.274;2023-03-01T14:50:44;24.85;;;14.93;;
49123;SDS011;48506;48.202;16.274;2023-03-01T14:53:18;19.63;;;13.68;;
49123;SDS011;48506;48.202;16.274;2023-03-01T14:56:03;21.90;;;14.10;;
49123;SDS011;48506;48.202;16.274;2023-03-01T14:58:31;22.40;;;14.75;;
49123;SDS011;48506;48.202;16.274;2023-03-01T15:00:59;24.17;;;15.50;;
49123;SDS011;48506;48.202;16.274;2023-03-01T15:03:38;23.10;;;14.67;;
49123;SDS011;48506;48.202;16.274;2023-03-01T15:06:09;25.83;;;15.25;;
49123;SDS011;48506;48.202;16.274;2023-03-01T15:08:41;22.60;;;14.80;;
49123;SDS011;48506;48.202;16.274;2023-03-01T15:13:56;27.30;;;17.35;;
49123;SDS011;48506;48.202;16.274;2023-03-01T15:16:26;26.55;;;16.25;;
49123;SDS011;48506;48.202;16.274;2023-03-01T15:21:33;23.90;;;15.93;;
49123;SDS011;48506;48.202;16.274;2023-03-01T15:26:51;25.60;;;17.10;;
49123;SDS011;48506;48.202;16.274;2023-03-01T15:29:32;31.15;;;18.63;;
49123;SDS011;48506;48.202;16.274;2023-03-01T15:32:20;28.67;;;17.05;;
49123;SDS011;48506;48.202;16.274;2023-03-01T15:34:51;29.08;;;16.60;;
49123;SDS011;48506;48.202;16.274;2023-03-01T15:37:37;25.65;;;16.00;;
49123;SDS011;48506;48.202;16.274;2023-03-01T15:40:23;28.70;;;17.77;;
49123;SDS011;48506;48.202;16.274;2023-03-01T15:42:59;28.83;;;18.00;;
49123;SDS011;48506;48.202;16.274;2023-03-01T15:45:28;29.38;;;17.70;;
49123;SDS011;48506;48.202;16.274;2023-03-01T15:48:00;29.50;;;16.90;;
49123;SDS011;48506;48.202;16.274;2023-03-01T15:50:35;29.10;;;18.48;;
49123;SDS011;48506;48.202;16.274;2023-03-01T15:53:06;32.80;;;18.95;;
49123;SDS011;48506;48.202;16.274;2023-03-01T15:55:37;28.52;;;18.70;;
49123;SDS011;48506;48.202;16.274;2023-03-01T15:58:10;31.23;;;18.02;;
49123;SDS011;48506;48.202;16.274;2023-03-01T16:00:44;30.25;;;17.33;;
49123;SDS011;48506;48.202;16.274;2023-03-01T16:03:13;30.40;;;17.85;;
49123;SDS011;48506;48.202;16.274;2023-03-01T16:05:46;33.75;;;17.90;;
49123;SDS011;48506;48.202;16.274;2023-03-01T16:10:43;29.42;;;16.23;;
49123;SDS011;48506;48.202;16.274;2023-03-01T16:13:11;30.50;;;16.42;;
49123;SDS011;48506;48.202;16.274;2023-03-01T16:15:38;29.35;;;17.77;;
49123;SDS011;48506;48.202;16.274;2023-03-01T16:18:05;27.30;;;16.38;;
49123;SDS011;48506;48.202;16.274;2023-03-01T16:20:33;30.40;;;17.67;;
49123;SDS011;48506;48.202;16.274;2023-03-01T16:23:04;30.20;;;17.42;;
49123;SDS011;48506;48.202;16.274;2023-03-01T16:25:33;30.17;;;16.50;;
49123;SDS011;48506;48.202;16.274;2023-03-01T16:28:00;33.40;;;17.52;;
49123;SDS011;48506;48.202;16.274;2023-03-01T16:30:34;32.83;;;18.50;;
49123;SDS011;48506;48.202;16.274;2023-03-01T16:33:01;31.60;;;16.95;;
49123;SDS011;48506;48.202;16.274;2023-03-01T16:35:27;29.33;;;17.65;;